sensor_id;sensor_type;location;lat;lon;timestamp;temperature;humidity
53643;DHT22;39546;45.534;12.048;2023-07-22T00:02:08;26.30;82.70
53643;DHT22;39546;45.534;12.048;2023-07-22T00:08:10;26.30;82.70
53643;DHT22;39546;45.534;12.048;2023-07-22T00:14:12;26.00;82.90
53643;DHT22;39546;45.534;12.048;2023-07-22T00:20:14;25.80;83.10
53643;DHT22;39546;45.534;12.048;2023-07-22T00:26:17;25.80;83.20
53643;DHT22;39546;45.534;12.048;2023-07-22T00:32:19;25.80;83.20
53643;DHT22;39546;45.534;12.048;2023-07-22T00:38:21;26.00;83.10
53643;DHT22;39546;45.534;12.048;2023-07-22T00:44:23;26.10;82.70
53643;DHT22;39546;45.534;12.048;2023-07-22T00:50:25;26.00;82.70
53643;DHT22;39546;45.534;12.048;2023-07-22T00:56:28;26.00;82.90
53643;DHT22;39546;45.534;12.048;2023-07-22T01:02:31;26.10;82.70
53643;DHT22;39546;45.534;12.048;2023-07-22T01:08:33;26.10;82.60
53643;DHT22;39546;45.534;12.048;2023-07-22T01:14:38;26.10;82.40
53643;DHT22;39546;45.534;12.048;2023-07-22T01:20:40;26.00;82.60
53643;DHT22;39546;45.534;12.048;2023-07-22T01:26:43;26.00;82.60
53643;DHT22;39546;45.534;12.048;2023-07-22T01:32:46;26.00;82.50
53643;DHT22;39546;45.534;12.048;2023-07-22T01:38:48;25.90;82.40
53643;DHT22;39546;45.534;12.048;2023-07-22T01:44:50;25.90;82.60
53643;DHT22;39546;45.534;12.048;2023-07-22T01:50:52;25.80;82.50
53643;DHT22;39546;45.534;12.048;2023-07-22T01:56:54;25.60;83.10
53643;DHT22;39546;45.534;12.048;2023-07-22T02:02:56;25.60;83.00
53643;DHT22;39546;45.534;12.048;2023-07-22T02:08:58;25.50;83.10
53643;DHT22;39546;45.534;12.048;2023-07-22T02:15:01;25.60;83.00
53643;DHT22;39546;45.534;12.048;2023-07-22T02:21:04;25.60;83.30
53643;DHT22;39546;45.534;12.048;2023-07-22T02:27:06;25.50;83.40
53643;DHT22;39546;45.534;12.048;2023-07-22T02:33:10;25.50;83.50
53643;DHT22;39546;45.534;12.048;2023-07-22T02:39:12;25.50;83.30
53643;DHT22;39546;45.534;12.048;2023-07-22T02:45:15;25.30;83.40
53643;DHT22;39546;45.534;12.048;2023-07-22T02:51:17;25.30;83.40
53643;DHT22;39546;45.534;12.048;2023-07-22T02:57:19;25.30;83.30
53643;DHT22;39546;45.534;12.048;2023-07-22T03:03:21;25.30;83.20
53643;DHT22;39546;45.534;12.048;2023-07-22T03:09:23;25.10;83.00
53643;DHT22;39546;45.534;12.048;2023-07-22T03:15:25;25.20;83.30
53643;DHT22;39546;45.534;12.048;2023-07-22T03:21:27;25.30;82.80
53643;DHT22;39546;45.534;12.048;2023-07-22T03:27:31;25.10;82.80
53643;DHT22;39546;45.534;12.048;2023-07-22T03:33:33;25.00;83.00
53643;DHT22;39546;45.534;12.048;2023-07-22T03:39:36;24.90;83.10
53643;DHT22;39546;45.534;12.048;2023-07-22T03:45:38;24.90;83.10
53643;DHT22;39546;45.534;12.048;2023-07-22T03:51:40;25.00;82.50
53643;DHT22;39546;45.534;12.048;2023-07-22T03:57:42;25.00;83.20
53643;DHT22;39546;45.534;12.048;2023-07-22T04:03:44;25.00;83.60
53643;DHT22;39546;45.534;12.048;2023-07-22T04:09:47;25.00;83.50
53643;DHT22;39546;45.534;12.048;2023-07-22T04:15:49;25.00;83.90
53643;DHT22;39546;45.534;12.048;2023-07-22T04:21:51;24.90;83.60
53643;DHT22;39546;45.534;12.048;2023-07-22T04:27:54;24.80;83.70
53643;DHT22;39546;45.534;12.048;2023-07-22T04:33:57;24.80;83.80
53643;DHT22;39546;45.534;12.048;2023-07-22T04:39:59;24.80;83.60
53643;DHT22;39546;45.534;12.048;2023-07-22T04:46:01;24.90;83.40
53643;DHT22;39546;45.534;12.048;2023-07-22T04:52:03;24.80;83.30
53643;DHT22;39546;45.534;12.048;2023-07-22T04:58:06;24.80;83.50
53643;DHT22;39546;45.534;12.048;2023-07-22T05:04:08;24.80;83.40
53643;DHT22;39546;45.534;12.048;2023-07-22T05:10:10;24.80;83.50
53643;DHT22;39546;45.534;12.048;2023-07-22T05:16:13;24.80;83.50
53643;DHT22;39546;45.534;12.048;2023-07-22T05:22:16;24.70;83.60
53643;DHT22;39546;45.534;12.048;2023-07-22T05:28:18;24.70;83.70
53643;DHT22;39546;45.534;12.048;2023-07-22T05:34:20;24.80;83.80
53643;DHT22;39546;45.534;12.048;2023-07-22T05:40:22;24.90;83.80
53643;DHT22;39546;45.534;12.048;2023-07-22T05:46:24;24.90;84.00
53643;DHT22;39546;45.534;12.048;2023-07-22T05:52:26;25.00;84.50
53643;DHT22;39546;45.534;12.048;2023-07-22T05:58:29;25.10;84.40
53643;DHT22;39546;45.534;12.048;2023-07-22T06:04:36;25.10;84.40
53643;DHT22;39546;45.534;12.048;2023-07-22T06:10:39;25.00;84.40
53643;DHT22;39546;45.534;12.048;2023-07-22T06:16:42;25.00;84.30
53643;DHT22;39546;45.534;12.048;2023-07-22T06:22:44;25.10;84.40
53643;DHT22;39546;45.534;12.048;2023-07-22T06:28:46;25.20;84.60
53643;DHT22;39546;45.534;12.048;2023-07-22T06:34:48;25.30;84.40
53643;DHT22;39546;45.534;12.048;2023-07-22T06:40:52;25.30;84.50
53643;DHT22;39546;45.534;12.048;2023-07-22T06:46:54;25.30;84.40
53643;DHT22;39546;45.534;12.048;2023-07-22T06:52:56;25.40;84.70
53643;DHT22;39546;45.534;12.048;2023-07-22T06:58:59;25.60;84.70
53643;DHT22;39546;45.534;12.048;2023-07-22T07:05:01;25.70;84.60
53643;DHT22;39546;45.534;12.048;2023-07-22T07:11:03;25.80;84.70
53643;DHT22;39546;45.534;12.048;2023-07-22T07:17:05;25.80;84.40
53643;DHT22;39546;45.534;12.048;2023-07-22T07:23:07;25.80;84.30
53643;DHT22;39546;45.534;12.048;2023-07-22T07:29:09;25.80;84.30
53643;DHT22;39546;45.534;12.048;2023-07-22T07:35:11;26.00;84.10
53643;DHT22;39546;45.534;12.048;2023-07-22T07:41:13;26.10;84.20
53643;DHT22;39546;45.534;12.048;2023-07-22T07:47:16;26.20;84.70
53643;DHT22;39546;45.534;12.048;2023-07-22T07:53:17;26.30;84.70
53643;DHT22;39546;45.534;12.048;2023-07-22T07:59:19;26.30;85.00
53643;DHT22;39546;45.534;12.048;2023-07-22T08:05:21;26.20;85.20
53643;DHT22;39546;45.534;12.048;2023-07-22T08:11:30;26.30;85.10
53643;DHT22;39546;45.534;12.048;2023-07-22T08:17:32;26.30;84.80
53643;DHT22;39546;45.534;12.048;2023-07-22T08:23:36;26.40;84.50
53643;DHT22;39546;45.534;12.048;2023-07-22T08:29:38;26.50;83.90
53643;DHT22;39546;45.534;12.048;2023-07-22T08:35:40;26.60;84.20
53643;DHT22;39546;45.534;12.048;2023-07-22T08:41:48;26.70;84.10
53643;DHT22;39546;45.534;12.048;2023-07-22T08:47:51;26.70;84.10
53643;DHT22;39546;45.534;12.048;2023-07-22T08:53:55;26.80;83.90
53643;DHT22;39546;45.534;12.048;2023-07-22T09:00:01;26.80;84.10
53643;DHT22;39546;45.534;12.048;2023-07-22T09:06:21;27.20;83.60
53643;DHT22;39546;45.534;12.048;2023-07-22T09:12:25;27.20;83.30
53643;DHT22;39546;45.534;12.048;2023-07-22T09:18:28;27.30;82.90
53643;DHT22;39546;45.534;12.048;2023-07-22T09:24:34;27.60;82.20
53643;DHT22;39546;45.534;12.048;2023-07-22T09:30:40;27.80;81.40
53643;DHT22;39546;45.534;12.048;2023-07-22T09:36:52;28.00;80.80
53643;DHT22;39546;45.534;12.048;2023-07-22T09:43:01;28.20;79.20
53643;DHT22;39546;45.534;12.048;2023-07-22T09:49:05;28.30;78.70
53643;DHT22;39546;45.534;12.048;2023-07-22T09:55:08;28.50;79.10
53643;DHT22;39546;45.534;12.048;2023-07-22T10:01:25;28.40;78.00
53643;DHT22;39546;45.534;12.048;2023-07-22T10:07:27;28.50;76.80
53643;DHT22;39546;45.534;12.048;2023-07-22T10:13:30;28.40;76.10
53643;DHT22;39546;45.534;12.048;2023-07-22T10:19:34;28.30;76.40
53643;DHT22;39546;45.534;12.048;2023-07-22T10:25:37;28.20;76.40
53643;DHT22;39546;45.534;12.048;2023-07-22T10:31:40;28.30;76.50
53643;DHT22;39546;45.534;12.048;2023-07-22T10:37:44;28.30;75.60
53643;DHT22;39546;45.534;12.048;2023-07-22T10:43:59;28.50;74.90
53643;DHT22;39546;45.534;12.048;2023-07-22T10:50:08;28.60;74.60
53643;DHT22;39546;45.534;12.048;2023-07-22T10:56:15;28.80;74.40
53643;DHT22;39546;45.534;12.048;2023-07-22T11:02:28;28.80;73.80
53643;DHT22;39546;45.534;12.048;2023-07-22T11:08:38;28.90;73.50
53643;DHT22;39546;45.534;12.048;2023-07-22T11:14:46;28.90;72.10
53643;DHT22;39546;45.534;12.048;2023-07-22T11:20:53;29.00;72.00
53643;DHT22;39546;45.534;12.048;2023-07-22T11:26:55;28.90;73.20
53643;DHT22;39546;45.534;12.048;2023-07-22T11:32:58;28.60;74.50
53643;DHT22;39546;45.534;12.048;2023-07-22T11:39:04;28.30;76.00
53643;DHT22;39546;45.534;12.048;2023-07-22T11:45:06;28.00;77.20
53643;DHT22;39546;45.534;12.048;2023-07-22T11:51:08;27.70;76.50
53643;DHT22;39546;45.534;12.048;2023-07-22T11:57:20;26.80;75.70
53643;DHT22;39546;45.534;12.048;2023-07-22T12:03:23;26.20;78.30
53643;DHT22;39546;45.534;12.048;2023-07-22T12:09:25;26.00;79.30
53643;DHT22;39546;45.534;12.048;2023-07-22T12:15:27;25.80;79.30
53643;DHT22;39546;45.534;12.048;2023-07-22T12:21:30;25.80;79.90
53643;DHT22;39546;45.534;12.048;2023-07-22T12:27:31;25.80;80.40
53643;DHT22;39546;45.534;12.048;2023-07-22T12:33:34;26.00;80.50
53643;DHT22;39546;45.534;12.048;2023-07-22T12:39:36;25.70;81.00
53643;DHT22;39546;45.534;12.048;2023-07-22T12:45:45;25.70;81.80
53643;DHT22;39546;45.534;12.048;2023-07-22T12:51:59;26.00;81.50
53643;DHT22;39546;45.534;12.048;2023-07-22T12:58:06;26.40;81.50
53643;DHT22;39546;45.534;12.048;2023-07-22T13:04:08;26.80;82.10
53643;DHT22;39546;45.534;12.048;2023-07-22T13:10:10;26.90;82.50
53643;DHT22;39546;45.534;12.048;2023-07-22T13:16:14;27.20;82.80
53643;DHT22;39546;45.534;12.048;2023-07-22T13:22:16;27.50;82.30
53643;DHT22;39546;45.534;12.048;2023-07-22T13:28:18;27.80;82.40
53643;DHT22;39546;45.534;12.048;2023-07-22T13:34:20;27.90;82.20
53643;DHT22;39546;45.534;12.048;2023-07-22T13:40:22;28.10;81.90
53643;DHT22;39546;45.534;12.048;2023-07-22T13:46:24;28.20;81.30
53643;DHT22;39546;45.534;12.048;2023-07-22T13:52:26;28.30;80.60
53643;DHT22;39546;45.534;12.048;2023-07-22T13:58:28;28.40;80.90
53643;DHT22;39546;45.534;12.048;2023-07-22T14:04:30;28.60;80.60
53643;DHT22;39546;45.534;12.048;2023-07-22T14:10:32;28.70;80.90
53643;DHT22;39546;45.534;12.048;2023-07-22T14:16:35;28.80;80.10
53643;DHT22;39546;45.534;12.048;2023-07-22T14:22:56;28.90;80.10
53643;DHT22;39546;45.534;12.048;2023-07-22T14:28:58;28.90;79.40
53643;DHT22;39546;45.534;12.048;2023-07-22T14:35:00;29.00;79.30
53643;DHT22;39546;45.534;12.048;2023-07-22T14:41:02;28.90;78.90
53643;DHT22;39546;45.534;12.048;2023-07-22T14:47:04;28.90;77.50
53643;DHT22;39546;45.534;12.048;2023-07-22T14:59:41;29.00;77.60
53643;DHT22;39546;45.534;12.048;2023-07-22T15:05:44;28.90;78.20
53643;DHT22;39546;45.534;12.048;2023-07-22T15:11:49;29.00;78.00
53643;DHT22;39546;45.534;12.048;2023-07-22T15:17:51;28.90;78.50
53643;DHT22;39546;45.534;12.048;2023-07-22T15:23:54;28.90;78.80
53643;DHT22;39546;45.534;12.048;2023-07-22T15:29:57;28.90;78.70
53643;DHT22;39546;45.534;12.048;2023-07-22T15:36:00;29.00;77.90
53643;DHT22;39546;45.534;12.048;2023-07-22T15:42:02;29.00;76.80
53643;DHT22;39546;45.534;12.048;2023-07-22T15:48:04;29.10;76.40
53643;DHT22;39546;45.534;12.048;2023-07-22T15:54:07;29.10;76.00
53643;DHT22;39546;45.534;12.048;2023-07-22T16:00:10;29.20;75.60
53643;DHT22;39546;45.534;12.048;2023-07-22T16:06:14;29.20;75.10
53643;DHT22;39546;45.534;12.048;2023-07-22T16:12:15;29.30;74.80
53643;DHT22;39546;45.534;12.048;2023-07-22T16:18:17;29.30;74.40
53643;DHT22;39546;45.534;12.048;2023-07-22T16:24:20;29.20;73.70
53643;DHT22;39546;45.534;12.048;2023-07-22T16:30:23;29.30;73.60
53643;DHT22;39546;45.534;12.048;2023-07-22T16:36:25;29.20;73.10
53643;DHT22;39546;45.534;12.048;2023-07-22T16:42:27;29.20;72.80
53643;DHT22;39546;45.534;12.048;2023-07-22T16:48:48;29.20;72.10
53643;DHT22;39546;45.534;12.048;2023-07-22T16:54:50;29.20;72.20
53643;DHT22;39546;45.534;12.048;2023-07-22T17:00:52;29.20;71.90
53643;DHT22;39546;45.534;12.048;2023-07-22T17:06:54;29.30;72.60
53643;DHT22;39546;45.534;12.048;2023-07-22T17:12:57;29.30;73.30
53643;DHT22;39546;45.534;12.048;2023-07-22T17:18:59;29.40;73.90
53643;DHT22;39546;45.534;12.048;2023-07-22T17:25:01;29.30;75.00
53643;DHT22;39546;45.534;12.048;2023-07-22T17:31:03;29.40;76.10
53643;DHT22;39546;45.534;12.048;2023-07-22T17:37:15;29.40;76.70
53643;DHT22;39546;45.534;12.048;2023-07-22T17:43:32;29.40;76.20
53643;DHT22;39546;45.534;12.048;2023-07-22T17:49:34;29.40;76.60
53643;DHT22;39546;45.534;12.048;2023-07-22T17:55:38;29.50;78.10
53643;DHT22;39546;45.534;12.048;2023-07-22T18:01:54;29.50;77.90
53643;DHT22;39546;45.534;12.048;2023-07-22T18:08:15;29.90;78.70
53643;DHT22;39546;45.534;12.048;2023-07-22T18:14:19;30.30;79.20
53643;DHT22;39546;45.534;12.048;2023-07-22T18:20:23;29.80;79.60
53643;DHT22;39546;45.534;12.048;2023-07-22T18:26:25;29.40;80.40
53643;DHT22;39546;45.534;12.048;2023-07-22T18:32:28;29.10;80.70
53643;DHT22;39546;45.534;12.048;2023-07-22T18:38:46;28.90;80.60
53643;DHT22;39546;45.534;12.048;2023-07-22T18:44:48;28.80;80.60
53643;DHT22;39546;45.534;12.048;2023-07-22T18:50:56;28.60;81.00
53643;DHT22;39546;45.534;12.048;2023-07-22T18:56:59;28.50;80.70
53643;DHT22;39546;45.534;12.048;2023-07-22T19:03:00;28.30;80.70
53643;DHT22;39546;45.534;12.048;2023-07-22T19:09:02;28.20;80.80
53643;DHT22;39546;45.534;12.048;2023-07-22T19:15:05;28.20;81.10
53643;DHT22;39546;45.534;12.048;2023-07-22T19:21:07;28.10;81.10
53643;DHT22;39546;45.534;12.048;2023-07-22T19:27:09;27.90;81.20
53643;DHT22;39546;45.534;12.048;2023-07-22T19:33:11;27.80;81.60
53643;DHT22;39546;45.534;12.048;2023-07-22T19:39:13;27.80;81.70
53643;DHT22;39546;45.534;12.048;2023-07-22T19:45:15;27.70;81.70
53643;DHT22;39546;45.534;12.048;2023-07-22T19:51:17;27.70;81.60
53643;DHT22;39546;45.534;12.048;2023-07-22T19:57:20;27.60;81.40
53643;DHT22;39546;45.534;12.048;2023-07-22T20:03:22;27.50;81.50
53643;DHT22;39546;45.534;12.048;2023-07-22T20:09:24;27.60;82.10
53643;DHT22;39546;45.534;12.048;2023-07-22T20:15:26;27.50;81.90
53643;DHT22;39546;45.534;12.048;2023-07-22T20:21:28;27.50;82.30
53643;DHT22;39546;45.534;12.048;2023-07-22T20:27:30;27.40;82.20
53643;DHT22;39546;45.534;12.048;2023-07-22T20:33:38;27.30;82.30
53643;DHT22;39546;45.534;12.048;2023-07-22T20:39:40;27.30;82.20
53643;DHT22;39546;45.534;12.048;2023-07-22T20:45:42;27.20;82.20
53643;DHT22;39546;45.534;12.048;2023-07-22T20:51:43;27.30;82.50
53643;DHT22;39546;45.534;12.048;2023-07-22T20:57:45;27.20;82.90
53643;DHT22;39546;45.534;12.048;2023-07-22T21:03:47;27.20;83.20
53643;DHT22;39546;45.534;12.048;2023-07-22T21:09:49;27.10;83.10
53643;DHT22;39546;45.534;12.048;2023-07-22T21:15:52;27.10;83.00
53643;DHT22;39546;45.534;12.048;2023-07-22T21:22:09;27.10;82.80
53643;DHT22;39546;45.534;12.048;2023-07-22T21:28:12;27.00;82.70
53643;DHT22;39546;45.534;12.048;2023-07-22T21:34:34;27.00;82.70
53643;DHT22;39546;45.534;12.048;2023-07-22T21:40:52;26.90;82.70
53643;DHT22;39546;45.534;12.048;2023-07-22T21:47:02;26.90;82.70
53643;DHT22;39546;45.534;12.048;2023-07-22T21:53:05;26.80;82.80
53643;DHT22;39546;45.534;12.048;2023-07-22T21:59:13;26.80;83.20
53643;DHT22;39546;45.534;12.048;2023-07-22T22:05:16;26.70;83.60
53643;DHT22;39546;45.534;12.048;2023-07-22T22:11:19;26.70;83.80
53643;DHT22;39546;45.534;12.048;2023-07-22T22:17:37;26.60;84.30
53643;DHT22;39546;45.534;12.048;2023-07-22T22:23:40;26.50;84.50
53643;DHT22;39546;45.534;12.048;2023-07-22T22:29:42;26.50;84.50
53643;DHT22;39546;45.534;12.048;2023-07-22T22:35:45;26.50;84.50
53643;DHT22;39546;45.534;12.048;2023-07-22T22:41:48;26.50;84.70
53643;DHT22;39546;45.534;12.048;2023-07-22T22:47:50;26.40;84.80
53643;DHT22;39546;45.534;12.048;2023-07-22T22:53:52;26.30;84.90
53643;DHT22;39546;45.534;12.048;2023-07-22T22:59:54;26.40;84.90
53643;DHT22;39546;45.534;12.048;2023-07-22T23:05:56;26.40;84.90
53643;DHT22;39546;45.534;12.048;2023-07-22T23:11:58;26.40;85.10
53643;DHT22;39546;45.534;12.048;2023-07-22T23:18:00;26.40;85.00
53643;DHT22;39546;45.534;12.048;2023-07-22T23:24:02;26.30;85.00
53643;DHT22;39546;45.534;12.048;2023-07-22T23:30:06;26.30;85.10
53643;DHT22;39546;45.534;12.048;2023-07-22T23:36:08;26.20;85.10
53643;DHT22;39546;45.534;12.048;2023-07-22T23:42:12;26.30;84.90
53643;DHT22;39546;45.534;12.048;2023-07-22T23:48:14;26.20;85.00
53643;DHT22;39546;45.534;12.048;2023-07-22T23:54:16;26.20;85.30
